Valle de Oro, Texas
Current Conditions -  °F | °C
As of 6:35 PM on Sunday 21 Dec 2014 (Local Time) from KDUX Reporting Station
Clear Clear  
Wind Chill: 36°   Ceiling: Unl
Heat Index: 41°   Visibility: 10mi
Dew Point: 22°   Wind: 7mph
Humidity: 48%   Direction: 170°S
Pressure: 29.58"   Gusts: NA
Location:  35.5297°N, 102.256°W
Report Text: KDUX 220035Z AUTO 17006KT 10SM CLR 05/M05 A2958 RMK AO2 T00481053
Loading
Personal Weather Stations






























Interactive Weather Map New forecast layout! Learn more

10-Day Weather Forecast

Advertisements
Track Severe Weather on mobile